This is the latest recevied weather packets stored in our database for station/object JS1SZZ-13. If no packets are shown the sender has not sent any weather packets the latest 1 day(s).
| Time | Temp. | Humidity | Pressure | Rain* | Wind** | Luminosity | Snow |
|---|---|---|---|---|---|---|---|
| 1778111100 | 21.67° C | 51% | 1012 hPa | 0 mm | - | - | - |
| 1778107501 | 17.78° C | 55% | 1013.6 hPa | 0 mm | - | - | - |
| 1778105700 | 15.56° C | 65% | 1013.9 hPa | 0 mm | - | - | - |
| 1778080501 | 9.44° C | 90% | 1016.3 hPa | 0 mm | - | - | - |
| 1778076900 | 10° C | 88% | 1016.5 hPa | 0 mm | - | - | - |
| 1778074201 | 11.11° C | 85% | 1016.8 hPa | 0 mm | - | - | - |
| 1778067901 | 12.22° C | 78% | 1016.6 hPa | 0 mm | - | - | - |
| 1778065200 | 13.33° C | 75% | 1016.7 hPa | 0 mm | - | - | - |
| 1778063401 | 13.89° C | 71% | 1016.5 hPa | 0 mm | - | - | - |
| 1778060700 | 15.56° C | 62% | 1016.5 hPa | 0 mm | - | - | - |
| 1778058899 | 17.22° C | 54% | 1016.2 hPa | 0 mm | - | - | - |
| 1778057100 | 18.33° C | 50% | 1015.8 hPa | 0 mm | - | - | - |
| 1778052599 | 20° C | 44% | 1016.4 hPa | 0 mm | - | - | - |
| 1778051701 | 20.56° C | 45% | 1015.4 hPa | 0 mm | - | - | - |
| 1778049001 | 20° C | 43% | 1015.9 hPa | 0 mm | - | - | - |
| 1778047100 | 20° C | 42% | 1015.9 hPa | 0 mm | - | - | - |
| 1778042788 | 21.11° C | 43% | 1016.5 hPa | 0 mm | - | - | - |
| 1778041887 | 20.56° C | 42% | 1016.9 hPa | 0 mm | - | - | - |
| 1778040987 | 20° C | 41% | 1016.7 hPa | 0 mm | - | - | - |
| 1778040086 | 20.56° C | 47% | 1017 hPa | 0 mm | - | - | - |
| 1778038286 | 20° C | 48% | 1017.3 hPa | 0 mm | - | - | - |
| 1778037341 | 20° C | 43% | 1017.5 hPa | 0 mm | - | - | - |
| 1778035543 | 18.89° C | 48% | 1017.7 hPa | 0 mm | - | - | - |
| 1778033743 | 18.89° C | 45% | 1018.2 hPa | 0 mm | - | - | - |
| 1778030143 | 18.89° C | 42% | 1018.8 hPa | 0 mm | - | - | - |
* Rain latest hour (hover to see other rain measurements)
** Current wind speed in m/s (hover to see current wind gust speed)